Flight Track Log - Related Links

Times and Time Zones

All times are in EDT time to prevent confusion due to time zone crossing. See the FFT86 flight status page for this flight to view local times or setup timezone preferences in your user account.


Time Position Orientation Groundspeed Altitude Reporting Facility
EDT Latitude Longitude Course Direction KTS MPH feet Rate Location/Type
Thu 10:13:55 PM 32.7472 -117.2433 23° Northeast 162 186 2,100  Level Los Angeles Center
Thu 10:14:56 PM 32.7464 -117.3142 269° West 219 252 4,200 2,439 Climbing Los Angeles Center
Thu 10:15:58 PM 32.6850 -117.2956 166° South 248 285 7,100 2,565 Climbing Los Angeles Center
Thu 10:17:00 PM 32.6433 -117.2000 117° Southeast 295 339 9,500 2,129 Climbing Los Angeles Center
Thu 10:18:02 PM 32.6303 -117.0944 98° East 318 366 11,500 2,029 Climbing Los Angeles Center
Thu 10:19:00 PM 32.7024 -116.7321 23° Northeast  Level FlightAware Approximate
Thu 10:19:16 PM 32.6844 -117.0017 55° Northeast 354 407 14,100  Level Los Angeles Center
Thu 10:20:18 PM 32.7822 -116.9139 37° Northeast 364 419 15,800 1,776 Climbing Los Angeles Center
Thu 10:21:21 PM 32.8722 -116.8319 37° Northeast 391 450 17,800 1,968 Climbing Los Angeles Center
Thu 10:22:23 PM 32.9653 -116.7464 38° Northeast 411 473 19,900 1,548 Climbing Los Angeles Center
Thu 10:23:25 PM 33.0608 -116.6589 37° Northeast 423 487 21,000 532 Climbing Los Angeles Center
Thu 10:24:27 PM 33.1856 -116.5450 37° Northeast 456 525 21,000 435 Level Los Angeles Center
Thu 10:25:29 PM 33.2919 -116.4539 36° Northeast 467 537 21,900 960 Climbing Los Angeles Center
Thu 10:26:32 PM 33.3975 -116.3608 36° Northeast 468 539 23,000 1,200 Climbing Los Angeles Center
Thu 10:27:34 PM 33.5044 -116.2678 36° Northeast 472 543 24,400 1,403 Climbing Los Angeles Center
Thu 10:28:36 PM 33.6089 -116.1753 36° Northeast 469 540 25,900 1,306 Climbing Los Angeles Center
Thu 10:29:38 PM 33.6881 -116.0425 54° Northeast 485 558 27,100 1,152 Climbing Los Angeles Center
Thu 10:30:41 PM 33.7783 -115.8747 57° Northeast 495 570 28,300 912 Climbing Los Angeles Center
Thu 10:31:43 PM 33.8556 -115.7350 56° Northeast 502 578 29,000 339 Climbing Los Angeles Center
Thu 10:32:45 PM 33.9303 -115.5964 57° Northeast 496 571 29,000 144 Level Los Angeles Center
Thu 10:33:48 PM 34.0033 -115.4578 58° Northeast 492 566 29,300 720 Climbing Los Angeles Center
Thu 10:34:50 PM 34.0783 -115.3192 57° Northeast 492 566 30,500 1,113 Climbing Los Angeles Center
Thu 10:35:52 PM 34.1533 -115.1781 57° Northeast 498 573 31,600 1,258 Climbing Los Angeles Center
Thu 10:36:54 PM 34.2433 -115.0078 57° Northeast 501 577 33,100 1,344 Climbing Los Angeles Center
Thu 10:37:57 PM 34.3178 -114.8675 57° Northeast 497 572 34,400 1,152 Climbing Los Angeles Center
Thu 10:38:59 PM 34.3914 -114.7275 57° Northeast 493 567 35,500 1,065 Climbing Los Angeles Center
Thu 10:40:01 PM 34.4656 -114.5883 57° Northeast 493 567 36,600 1,016 Climbing Los Angeles Center
Thu 10:41:03 PM 34.5375 -114.4494 58° Northeast 489 563 37,600 912 Climbing Los Angeles Center
Thu 10:42:06 PM 34.6247 -114.2831 57° Northeast 486 559 38,500 672 Climbing Los Angeles Center
Thu 10:43:08 PM 34.6978 -114.1406 58° Northeast 492 566 39,000 242 Climbing Los Angeles Center
Thu 10:44:10 PM 34.7694 -114.0011 58° Northeast 489 563 39,000  Level Los Angeles Center
Thu 10:45:12 PM 34.8453 -113.8550 58° Northeast 485 558 39,000  Level Los Angeles Center
Thu 10:46:15 PM 34.9156 -113.7178 58° Northeast 484 557 39,000  Level Los Angeles Center
Thu 10:47:17 PM 34.9856 -113.5789 58° Northeast 483 556 39,000  Level Los Angeles Center
Thu 10:48:19 PM 35.0561 -113.4417 58° Northeast 482 555 39,000  Level Los Angeles Center
Thu 10:49:22 PM 35.1389 -113.2767 58° Northeast 480 552 39,000  Level Los Angeles Center
Thu 10:50:24 PM 35.2047 -113.1447 59° Northeast 477 549 39,000  Level Los Angeles Center
Thu 10:51:26 PM 35.2744 -113.0053 58° Northeast 479 551 39,000  Level Los Angeles Center
Thu 10:52:28 PM 35.3481 -112.8583 58° Northeast 483 556 39,000  Level Los Angeles Center
Thu 10:53:30 PM 35.4181 -112.7164 59° Northeast 486 559 39,000  Level Los Angeles Center
Thu 10:54:33 PM 35.4947 -112.5622 59° Northeast 488 562 39,000  Level Los Angeles Center
Thu 10:55:35 PM 35.5625 -112.4236 59° Northeast 481 554 39,000  Level Los Angeles Center
Thu 10:56:49 PM 35.6308 -112.2861 59° Northeast 476 548 39,000  Level Los Angeles Center
Thu 10:57:51 PM 35.7106 -112.1211 59° Northeast 473 544 39,000  Level Los Angeles Center
Thu 10:58:53 PM 35.7914 -111.9553 59° Northeast 473 544 39,000  Level Los Angeles Center
Thu 10:59:56 PM 35.8575 -111.8164 60° Northeast 472 543 39,000  Level Los Angeles Center
Thu 11:00:30 PM 35.8939 -111.7444 58° Northeast 474 545 39,000  Level Denver Center
Thu 11:01:32 PM 35.9747 -111.5764 59° Northeast 477 549 39,000  Level Denver Center
Thu 11:02:34 PM 36.0422 -111.4339 60° Northeast 481 554 39,000 -48 Level Denver Center
Thu 11:03:36 PM 36.1122 -111.2908 59° Northeast 486 559 38,900 -293 Descending Denver Center
Thu 11:04:37 PM 36.1906 -111.1639 53° Northeast 470 541 38,400 -444 Descending Denver Center
Thu 11:05:51 PM 36.2722 -111.0367 51° Northeast 471 542 37,900 -482 Descending Denver Center
Thu 11:06:54 PM 36.3681 -110.8781 53° Northeast 477 549 37,300 -432 Descending Denver Center
Thu 11:07:56 PM 36.4658 -110.7197 52° Northeast 481 554 37,000 -145 Descending Denver Center
Thu 11:08:58 PM 36.5458 -110.5864 53° Northeast 482 555 37,000  Level Denver Center
Thu 11:09:59 PM 36.6244 -110.4536 54° Northeast 480 552 37,000  Level Denver Center
Thu 11:11:01 PM 36.7042 -110.3217 53° Northeast 478 550 37,000  Level Denver Center
Thu 11:12:03 PM 36.7833 -110.1878 54° Northeast 480 552 37,000  Level Denver Center
Thu 11:13:05 PM 36.8706 -110.0425 53° Northeast 483 556 37,000  Level Denver Center
Thu 11:14:07 PM 36.9600 -109.8903 54° Northeast 484 557 37,000  Level Denver Center
Thu 11:15:09 PM 37.0378 -109.7597 53° Northeast 485 558 37,000  Level Denver Center
Thu 11:16:11 PM 37.1275 -109.6056 54° Northeast 489 563 37,000  Level Denver Center
Thu 11:17:13 PM 37.2036 -109.4758 54° Northeast 483 556 37,000  Level Denver Center
Thu 11:18:15 PM 37.2794 -109.3456 54° Northeast 481 554 37,000  Level Denver Center
Thu 11:19:17 PM 37.3683 -109.1922 54° Northeast 484 557 37,000  Level Denver Center
Thu 11:20:19 PM 37.4439 -109.0603 54° Northeast 484 557 37,000  Level Denver Center
Thu 11:21:21 PM 37.5325 -108.9061 54° Northeast 484 557 37,000  Level Denver Center
Thu 11:22:23 PM 37.6081 -108.7733 54° Northeast 486 559 37,000  Level Denver Center
Thu 11:23:25 PM 37.6964 -108.6167 54° Northeast 488 562 37,000  Level Denver Center
Thu 11:24:26 PM 37.7714 -108.4836 54° Northeast 486 559 37,000  Level Denver Center
Thu 11:25:28 PM 37.8464 -108.3553 53° Northeast 478 550 37,000  Level Denver Center
Thu 11:26:30 PM 37.9328 -108.2008 55° Northeast 479 551 37,000  Level Denver Center
Thu 11:27:32 PM 38.0078 -108.0689 54° Northeast 480 552 37,000  Level Denver Center
Thu 11:28:34 PM 38.0947 -107.9119 55° Northeast 484 557 37,000  Level Denver Center
Thu 11:29:35 PM 38.1675 -107.7764 56° Northeast 486 559 37,000  Level Denver Center
Thu 11:30:37 PM 38.2544 -107.6219 54° Northeast 483 556 37,000  Level Denver Center
Thu 11:31:39 PM 38.3144 -107.5097 56° Northeast 482 555 37,000 48 Level Denver Center
Thu 11:32:41 PM 38.4136 -107.3294 55° Northeast 486 559 37,100  Climbing Denver Center
Thu 11:33:54 PM 38.4875 -107.1947 55° Northeast 485 558 37,000 -44 Descending Denver Center
Thu 11:34:57 PM 38.5875 -107.0111 55° Northeast 487 560 37,000  Level Denver Center
Thu 11:35:59 PM 38.6628 -106.8700 56° Northeast 483 556 37,000  Level Denver Center
Thu 11:37:13 PM 38.7542 -106.6994 55° Northeast 485 558 37,000 -1,511 Level Denver Center
Thu 11:38:14 PM 38.8308 -106.5569 55° Northeast 489 563 33,600 -2,976 Descending Denver Center
Thu 11:39:16 PM 38.9042 -106.4197 55° Northeast 499 574 30,900 -2,565 Descending Denver Center
Thu 11:40:18 PM 38.9881 -106.2617 56° Northeast 483 556 28,300 -2,293 Descending Denver Center
Thu 11:41:19 PM 39.0586 -106.1275 56° Northeast 466 536 26,200 -2,293 Descending Denver Center
Thu 11:42:21 PM 39.1411 -105.9700 56° Northeast 445 512 23,600 -2,226 Descending Denver Center
Thu 11:43:23 PM 39.2072 -105.8419 56° Northeast 432 497 21,600 -1,887 Descending Denver Center
Thu 11:44:25 PM 39.2719 -105.7172 56° Northeast 422 486 19,700 -1,707 Descending Denver Center
Thu 11:45:26 PM 39.3336 -105.5983 56° Northeast 404 465 18,100 -1,122 Descending Denver Center
Thu 11:46:28 PM 39.3900 -105.4900 56° Northeast 373 429 17,400 -919 Descending Denver Center
Thu 11:47:30 PM 39.4011 -105.3628 84° East 329 379 16,200 -1,210 Descending Denver Center
Thu 11:48:32 PM 39.4064 -105.2383 87° East 326 375 14,900 -1,171 Descending Denver Center
Thu 11:49:33 PM 39.4114 -105.1222 87° East 325 374 13,800 -780 Descending Denver Center
Thu 11:50:35 PM 39.4161 -105.0144 87° East 305 351 13,300 -439 Descending Denver Center
Thu 11:51:36 PM 39.4275 -104.9175 81° East 260 299 12,900 -732 Descending Denver Center
Thu 11:52:38 PM 39.4853 -104.8622 36° Northeast 260 299 11,800 -1,113 Descending Denver Center
Thu 11:53:40 PM 39.5483 -104.8236 25° Northeast 250 288 10,600 -1,268 Descending Denver Center
Thu 11:54:41 PM 39.6178 -104.7847 23° Northeast 251 289 9,200 -1,111 Descending Denver Center
Thu 11:55:55 PM 39.6933 -104.7403 24° Northeast 243 280 8,100 -689 Descending Denver Center
Thu 11:57:09 PM 39.7439 -104.7103 25° Northeast 206 237 7,500 -706 Descending Denver Center
Thu 11:58:11 PM 39.7997 -104.6875 17° North 170 196 6,500 -774 Descending Denver Center
Thu 11:59:13 PM 39.8394 -104.6872 360° North 132 152 5,900 -585 Descending Denver Center
Fri 12:00:14 AM 39.8683 -104.6872 360° North 135 155 5,300 -590 Descending Denver Center
Fri 12:02:00 AM 39.8617 -104.6732 122° Southeast  Level Estimated
Fri 12:09:00 AM 39.8617 -104.6732 142° Southeast  Level Estimated
Fri 12:10:00 AM 39.8617 -104.6732 142° Southeast  Level Estimated

Login

Don't have an account? Register now (free) for customized features, flight alerts, and more!